Horizon — WDF5156 — position and weather

sailwx.info

Track history (hours):
 
Tides and Currents Weather Stations Pressure Air Temp Water Temp Dewpoint Dewpoint Depression Visibility Wind Speed Wind Dir Waves Ship Positions

Horizon

Owner: ACA MARINE CORP, MAYFIELD HEIGHTS, OH. More information available from US FCC via Universal Licensing System and Coast Guard Vessel Documentation Center.

Last reported at 2017-Feb-05 15:28 UTC. Time now 2017-May-24 13:34 UTC.
Position N 26°16' W 080°05'.
Warning: this ship's position is months out of date.

Length 42 m; draft 2.5 m.

Type: Pleasure craft. MMSI: 367460010.

Date/timePositionNaut miles runAvg speedWind from/ knotsBaromVisibWave heightAir tempDewpointWater temp
2017-Feb-05 15:28N 26°16' W 080°05'5 5.1
2017-Feb-05 14:32N 26°11' W 080°06'3 0.2
2017-Feb-04 20:03N 26°08' W 080°07'0 0.0
2017-Feb-04 19:28N 26°08' W 080°07'0 0.0
2017-Feb-04 18:28N 26°08' W 080°07'0 0.0
2017-Feb-04 17:26N 26°08' W 080°07'0 0.0
2017-Feb-02 17:10N 26°08' W 080°07'2 2.7
2017-Feb-02 16:33N 26°07' W 080°07'3 2.6
2017-Feb-02 15:34N 26°07' W 080°09'2 1.1
2017-Feb-02 13:30N 26°05' W 080°11'0 0.0
2017-Feb-02 07:05N 26°05' W 080°11'0 0.0
2017-Feb-02 05:10N 26°05' W 080°11'0 0.1
2017-Feb-02 04:16N 26°05' W 080°11'0 0.0
2017-Feb-01 22:21N 26°05' W 080°11'0 0.1
2017-Feb-01 21:33N 26°05' W 080°11'0 0.0
2017-Feb-01 20:14N 26°05' W 080°11'0 0.1
2017-Feb-01 19:33N 26°05' W 080°11'0 0.1
2017-Feb-01 18:33N 26°05' W 080°11'0 0.0
2017-Feb-01 17:32N 26°05' W 080°11'0 0.0
2017-Feb-01 16:33N 26°05' W 080°11'0 0.0
2017-Feb-01 10:33N 26°05' W 080°11'0 0.0
2017-Feb-01 05:13N 26°05' W 080°11'0 0.0
2017-Feb-01 02:05N 26°05' W 080°11'0 0.2
2017-Feb-01 01:32N 26°05' W 080°11'0 0.1
2017-Feb-01 00:22N 26°05' W 080°11'0 0.0
2017-Jan-31 23:08N 26°05' W 080°11'0 0.1
2017-Jan-31 22:33N 26°05' W 080°11'0 0.0
2017-Jan-31 19:17N 26°05' W 080°11'0 0.0
2017-Jan-31 16:29N 26°05' W 080°11'0 0.0
2017-Jan-31 10:27N 26°05' W 080°11'0 0.0
2017-Jan-31 05:17N 26°05' W 080°11'0 0.1
2017-Jan-31 02:17N 26°05' W 080°11'0 0.1
2017-Jan-31 01:15N 26°05' W 080°11'0 0.0
2017-Jan-30 23:12N 26°05' W 080°11'0 0.1
2017-Jan-30 22:33N 26°05' W 080°11'0 0.0
2017-Jan-30 17:19N 26°05' W 080°11'0 0.1
2017-Jan-30 16:12N 26°05' W 080°11'0 0.0
2017-Jan-30 10:32N 26°05' W 080°11'0 0.0
2017-Jan-30 09:07N 26°05' W 080°11'0 0.0
2017-Jan-30 02:08N 26°05' W 080°11'0 0.1
2017-Jan-30 01:26N 26°05' W 080°11'0 0.0
2017-Jan-29 23:19N 26°05' W 080°11'0 0.0
2017-Jan-29 22:34N 26°05' W 080°11'0 0.0
2017-Jan-29 16:15N 26°05' W 080°11'0 0.0
2017-Jan-29 10:14N 26°05' W 080°11'0 0.0
2017-Jan-29 05:27N 26°05' W 080°11'0 0.0
2017-Jan-29 02:20N 26°05' W 080°11'0 0.0
2017-Jan-29 01:33N 26°05' W 080°11'0 0.0
2017-Jan-28 23:21N 26°05' W 080°11'0 0.0
2017-Jan-28 19:29N 26°05' W 080°11'0 0.0
2017-Jan-28 16:20N 26°05' W 080°11'0 0.0
2017-Jan-28 05:31N 26°05' W 080°11'0 0.0
2017-Jan-28 02:29N 26°05' W 080°11'0 0.0
2017-Jan-28 01:33N 26°05' W 080°11'0 0.0
2017-Jan-27 23:21N 26°05' W 080°11'0 0.1
2017-Jan-27 22:31N 26°05' W 080°11'0 0.0
2017-Jan-27 11:04N 26°05' W 080°11'0 0.1
2017-Jan-27 10:30N 26°05' W 080°11'0 0.0
2017-Jan-27 02:15N 26°05' W 080°11'0 0.0
2017-Jan-26 23:28N 26°05' W 080°11'0 0.0
2017-Jan-26 22:32N 26°05' W 080°11'  
Track history (hours):
 
Tides and Currents Weather Stations Pressure Air Temp Water Temp Dewpoint Dewpoint Depression Visibility Wind Speed Wind Dir Waves Ship Positions

Horizon

Owner: ACA MARINE CORP, MAYFIELD HEIGHTS, OH. More information available from US FCC via Universal Licensing System and Coast Guard Vessel Documentation Center.

Last reported at 2017-Feb-05 15:28 UTC. Time now 2017-May-24 13:34 UTC.
Position N 26°16' W 080°05'.
Warning: this ship's position is months out of date.

Length 42 m; draft 2.5 m.

Type: Pleasure craft. MMSI: 367460010.

Date/timePositionNaut miles runAvg speedWind from/ knotsBaromVisibWave heightAir tempDewpointWater temp
2017-Feb-05 15:28N 26°16' W 080°05'5 5.1
2017-Feb-05 14:32N 26°11' W 080°06'3 0.2
2017-Feb-04 20:03N 26°08' W 080°07'0 0.0
2017-Feb-04 19:28N 26°08' W 080°07'0 0.0
2017-Feb-04 18:28N 26°08' W 080°07'0 0.0
2017-Feb-04 17:26N 26°08' W 080°07'0 0.0
2017-Feb-02 17:10N 26°08' W 080°07'2 2.7
2017-Feb-02 16:33N 26°07' W 080°07'3 2.6
2017-Feb-02 15:34N 26°07' W 080°09'2 1.1
2017-Feb-02 13:30N 26°05' W 080°11'0 0.0
2017-Feb-02 07:05N 26°05' W 080°11'0 0.0
2017-Feb-02 05:10N 26°05' W 080°11'0 0.1
2017-Feb-02 04:16N 26°05' W 080°11'0 0.0
2017-Feb-01 22:21N 26°05' W 080°11'0 0.1
2017-Feb-01 21:33N 26°05' W 080°11'0 0.0
2017-Feb-01 20:14N 26°05' W 080°11'0 0.1
2017-Feb-01 19:33N 26°05' W 080°11'0 0.1
2017-Feb-01 18:33N 26°05' W 080°11'0 0.0
2017-Feb-01 17:32N 26°05' W 080°11'0 0.0
2017-Feb-01 16:33N 26°05' W 080°11'0 0.0
2017-Feb-01 10:33N 26°05' W 080°11'0 0.0
2017-Feb-01 05:13N 26°05' W 080°11'0 0.0
2017-Feb-01 02:05N 26°05' W 080°11'0 0.2
2017-Feb-01 01:32N 26°05' W 080°11'0 0.1
2017-Feb-01 00:22N 26°05' W 080°11'0 0.0
2017-Jan-31 23:08N 26°05' W 080°11'0 0.1
2017-Jan-31 22:33N 26°05' W 080°11'0 0.0
2017-Jan-31 19:17N 26°05' W 080°11'0 0.0
2017-Jan-31 16:29N 26°05' W 080°11'0 0.0
2017-Jan-31 10:27N 26°05' W 080°11'0 0.0
2017-Jan-31 05:17N 26°05' W 080°11'0 0.1
2017-Jan-31 02:17N 26°05' W 080°11'0 0.1
2017-Jan-31 01:15N 26°05' W 080°11'0 0.0
2017-Jan-30 23:12N 26°05' W 080°11'0 0.1
2017-Jan-30 22:33N 26°05' W 080°11'0 0.0
2017-Jan-30 17:19N 26°05' W 080°11'0 0.1
2017-Jan-30 16:12N 26°05' W 080°11'0 0.0
2017-Jan-30 10:32N 26°05' W 080°11'0 0.0
2017-Jan-30 09:07N 26°05' W 080°11'0 0.0
2017-Jan-30 02:08N 26°05' W 080°11'0 0.1
2017-Jan-30 01:26N 26°05' W 080°11'0 0.0
2017-Jan-29 23:19N 26°05' W 080°11'0 0.0
2017-Jan-29 22:34N 26°05' W 080°11'0 0.0
2017-Jan-29 16:15N 26°05' W 080°11'0 0.0
2017-Jan-29 10:14N 26°05' W 080°11'0 0.0
2017-Jan-29 05:27N 26°05' W 080°11'0 0.0
2017-Jan-29 02:20N 26°05' W 080°11'0 0.0
2017-Jan-29 01:33N 26°05' W 080°11'0 0.0
2017-Jan-28 23:21N 26°05' W 080°11'0 0.0
2017-Jan-28 19:29N 26°05' W 080°11'0 0.0
2017-Jan-28 16:20N 26°05' W 080°11'0 0.0
2017-Jan-28 05:31N 26°05' W 080°11'0 0.0
2017-Jan-28 02:29N 26°05' W 080°11'0 0.0
2017-Jan-28 01:33N 26°05' W 080°11'0 0.0
2017-Jan-27 23:21N 26°05' W 080°11'0 0.1
2017-Jan-27 22:31N 26°05' W 080°11'0 0.0
2017-Jan-27 11:04N 26°05' W 080°11'0 0.1
2017-Jan-27 10:30N 26°05' W 080°11'0 0.0
2017-Jan-27 02:15N 26°05' W 080°11'0 0.0
2017-Jan-26 23:28N 26°05' W 080°11'0 0.0
2017-Jan-26 22:32N 26°05' W 080°11'  

Dump ship's entire track history